Main page
METAR-TAF:

METAR-TAF

Airports :

City of Derry Airport

Derry, Northern Ireland

latitude: 55-03N, longitude: 007-09W, elevation: 9 m

Current weather observation

The report was made 11 hours and 48 minutes ago, at 16:50 UTC
Wind 10 kt from the Southwest
Temperature 17°C
Humidity 82%
Pressure 1014 hPa
Visibility 10 km or more
Few clouds at a height of 1600 ft
Broken clouds at a height of 1900 ft

METAR: EGAE 211650Z 23010KT 9999 FEW016 BKN019 17/14 Q1014

Time: 05:38 (04:38 UTC)

Forecast

The report was made 11 hours and 42 minutes ago, at 16:56 UTC
Forecast valid from 21 at 18 UTC to 21 at 21 UTC
Wind 8 kt from the Southwest
Visibility 10 km or more
Few clouds at a height of 1200 ft
Broken clouds at a height of 2000 ft
Becoming
from 21 at 19 UTC to 21 at 21 UTC
Broken clouds at a height of 1200 ft
Probability 30% :
Temporary
from 21 at 19 UTC to 21 at 21 UTC
Broken clouds at a height of 600 ft

TAF: EGAE 211656Z 2118/2121 23008KT 9999 FEW012 BKN020 BECMG 2119/2121 BKN012 PROB30 TEMPO 2119/2121 BKN006

Weather observations and forecasts of more than 4000 airports (METAR and TAF reports).

The available stations are represented by yellow and red dots on the map.

Hover mouse over dot to see the name of the station.

Then click to see weather observations and forecasts.

To change the map : click on the green buttons with a black cross to zoom in, on the green button with a dash to zoom out, or on the green arrows for adjacent maps.


METAR-TAF: